x

Tillamook, Or - 85 Nm Wnw Of Tillamook, Or (46089) Wave Buoy

6:50pm - Thu 21st Aug 2014 All times are PDT. -7 hours from GMT.

  • Sig Wave height 3.3ft
  • Swell Direction
  • Peak Period 7s
  • Average Period 6s
  • Wind
    9mph, 13mph gusts
  • Sea Temp 65°f
  • Air Temp 64°f
  • Sea Pressure 1015mb
  • Tillamook, Or - 85 Nm Wnw Of Tillamook, Or
  • Tillamook, Or - 85 Nm Wnw Of Tillamook, Or

More Historic Weather Station data

Upgrade to MSW Pro to gain access to the past 30 days of data for over 8000 Wavebouys and Weather Stations around the globe.

Join Pro

Comparision Forecast

View Surf forecast
   
Thu 08/21 6:50pm 3.5ft 7s 6s 9 13 mph 1015mb 65f 64f
5:50pm 3.5ft 8s 5s 7 9 mph 1015.4mb 65f 65f
4:50pm 3.5ft 8s 5s 4 7 mph 1015.4mb 65f 65f
3:50pm 3.5ft 7s 5s 9 13 mph 1015.7mb 65f 64f
2:50pm 3.5ft 15s 6s 9 13 mph 1016.1mb 65f 63f
1:50pm 3.5ft 7s 6s 9 13 mph 1016.4mb 65f 63f
12:50pm 3.5ft 8s 6s 9 11 mph 1016.6mb 65f 63f
11:50am 4ft 7s 6s 9 11 mph 1016.7mb 65f 62f
10:50am 3.5ft 8s 6s 7 9 mph 1016.8mb 65f 62f
9:50am 4ft 8s 6s 7
mph
1016.8mb 65f 63f
8:50am 3.5ft 6s 6s 7 9 mph 1016.8mb 65f 63f
7:50am 4.5ft 8s 6s 4 7 mph 1017mb 65f 64f
6:50am 4ft 7s 6s 2 4 mph 1016.9mb 65f 64f
5:50am 4.5ft 7s 6s  -  2 mph 1016.8mb 65f 64f
4:50am 4ft 6s 6s 2
mph
1016.8mb 65f 64f
3:50am 4.5ft 7s 6s 2 4 mph 1017.1mb 65f 63f
2:50am 5ft 7s 6s 4
mph
1017.4mb 65f 64f
1:50am 4.5ft 7s 6s 4 7 mph 1017.5mb 65f 63f
12:50am 5ft 7s 6s 4 7 mph 1017.5mb 65f 63f
Wed 08/20 11:50pm 4.5ft 8s 6s 7 9 mph 1017.5mb 65f 63f
10:50pm 5ft 7s 6s 7 9 mph 1017.4mb 65f 63f
9:50pm 5ft 8s 6s 9 11 mph 1017.3mb 65f 64f
8:50pm 5ft 7s 6s 9 11 mph 1017mb 65f 64f
7:50pm 5ft 8s 6s 9 11 mph 1016.9mb 65f 64f
6:50pm 5.5ft 7s 6s 9 13 mph 1017mb 65f 64f
5:50pm 6ft 8s 6s 9 11 mph 1017.1mb 65f 64f
4:50pm 5.5ft 7s 6s 9 13 mph 1017.2mb 65f 64f
3:50pm 6ft 8s 6s 9 13 mph 1017.2mb 65f 64f
2:50pm 6ft 7s 6s 11 13 mph 1017.3mb 65f 64f
1:50pm 6ft 8s 6s 9 11 mph 1017.1mb 65f 64f
12:50pm 5.5ft 8s 6s 9 13 mph 1016.7mb 65f 64f
11:50am 5.5ft 8s 6s 9 13 mph 1016.4mb 65f 64f
10:50am 5.5ft 8s 6s 9 13 mph 1016.2mb 65f 64f
9:50am 5ft 8s 6s 9 13 mph 1015.9mb 65f 63f
8:50am 5ft 9s 6s 11 13 mph 1015.3mb 65f 63f
7:50am 5ft 8s 6s 11 13 mph 1015.1mb 65f 63f
6:50am 5ft 8s 5s 11 16 mph 1014.7mb 65f 63f
5:50am 5ft 10s 6s 13 16 mph 1014.3mb 65f 63f
4:50am 5ft 11s 6s 11 13 mph 1014.2mb 65f 64f
3:50am 5ft 10s 6s 9 11 mph 1013.7mb 65f 64f
2:50am 4.5ft 11s 6s 11 13 mph 1013.6mb 65f 64f
1:50am 5ft 10s 6s 11 16 mph 1013.8mb 65f 64f
12:50am 5ft 11s 6s 9 11 mph 1013.3mb 65f 64f
Tue 08/19 11:50pm 5.5ft 11s 7s 9 11 mph 1013.1mb 65f 64f
10:50pm 5ft 11s 6s 7 9 mph 1013.3mb 65f 64f
9:50pm 5ft 11s 7s 11 13 mph 1013.5mb 65f 64f
8:50pm 5ft 7s 6s 7 11 mph 1013.1mb 65f 64f
7:50pm 5ft 11s 6s 9 11 mph 1013.1mb 65f 65f
6:50pm 5ft 11s 6s 7 9 mph 1013mb 65f 65f
5:50pm 5ft 8s 6s 9 13 mph 1013.5mb 65f 65f
4:50pm 5.5ft 11s 6s 11 13 mph 1013.3mb 65f 65f
3:50pm 6ft 8s 6s 11 16 mph 1013.6mb 65f 65f
2:50pm 6ft 11s 6s 11 16 mph 1014.1mb 65f 64f
1:50pm 7ft 8s 6s 11 16 mph 1014mb 65f 65f
12:50pm 7ft 8s 6s 11 16 mph 1014.1mb 65f 65f
11:50am 7.5ft 7s 6s 13 16 mph 1013.9mb 65f 65f
10:50am 7.5ft 8s 6s 13 20 mph 1013.9mb 65f 64f
9:50am 7.5ft 7s 6s 13 18 mph 1013.6mb 65f 64f
8:50am 8ft 7s 6s 16 20 mph 1013.6mb 65f 64f
7:50am 8ft 7s 6s 16 20 mph 1013.3mb 65f 63f
6:50am 6.5ft 7s 6s 16 20 mph 1013mb 65f 63f
5:50am 7.5ft 8s 6s 16 22 mph 1012.7mb 65f 63f
4:50am 8ft 7s 6s 16 25 mph 1012.7mb 65f 63f
3:50am 7.5ft 7s 6s 16 22 mph 1012.7mb 65f 64f
2:50am 7ft 8s 6s 18 22 mph 1012.8mb 65f 64f
1:50am 7ft 7s 6s 16 22 mph 1012.7mb 65f 64f
12:50am 8ft 7s 6s 18 27 mph 1013.2mb 65f 64f
Mon 08/18 11:50pm 7ft 7s 5s 16 22 mph 1013.1mb 65f 65f
10:50pm 7ft 7s 6s 18 27 mph 1013.3mb 65f 64f
9:50pm 7ft 7s 5s 16 22 mph 1013.3mb 65f 64f
8:50pm 7ft 7s 5s 18 27 mph 1013.1mb 65f 65f
7:50pm  -   -   -  18 25 mph 1013.1mb 65f 64f
6:50pm 6.5ft 7s 5s 18 22 mph 1013.3mb 65f 64f
5:50pm 6.5ft 7s 5s 18 27 mph 1014mb 65f 64f
4:50pm 6ft 7s 5s 18 25 mph 1014.1mb 65f 64f
3:50pm 6ft 8s 5s 16 22 mph 1014.6mb 65f 64f
2:50pm 6ft 8s 5s 16 20 mph 1015.1mb 65f 64f
1:50pm 6ft 8s 6s 13 16 mph 1015.5mb 65f 64f
12:50pm 6ft 8s 6s 13 18 mph 1015.9mb 65f 64f
11:50am 6ft 7s 6s 11 18 mph 1016.3mb 65f 64f
10:50am 6ft 7s 6s 11 16 mph 1016.6mb 65f 64f
9:50am 6ft 7s 6s 11 13 mph 1016.7mb 65f 63f
8:50am 6ft 8s 6s 13 18 mph 1016.6mb 65f 63f
7:50am 6ft 7s 6s 13 20 mph 1016.5mb 65f 63f
6:50am 5.5ft 7s 5s 13 18 mph 1016.5mb 65f 63f
5:50am 5.5ft 7s 5s 13 20 mph 1016.5mb 65f 63f
4:50am 5.5ft 6s 5s 13 22 mph 1016.8mb 65f 63f
3:50am 5.5ft 7s 5s 13 18 mph 1017.3mb 65f 63f